sensor_id;sensor_type;location;lat;lon;timestamp;P1;durP1;ratioP1;P2;durP2;ratioP2
545;SDS011;259;53.304;9.816;2023-07-13T00:01:30;1.00;;;0.80;;
545;SDS011;259;53.304;9.816;2023-07-13T00:03:57;1.13;;;1.00;;
545;SDS011;259;53.304;9.816;2023-07-13T00:06:23;1.07;;;0.97;;
545;SDS011;259;53.304;9.816;2023-07-13T00:08:49;0.90;;;0.90;;
545;SDS011;259;53.304;9.816;2023-07-13T00:11:17;0.67;;;0.67;;
545;SDS011;259;53.304;9.816;2023-07-13T00:13:43;0.90;;;0.80;;
545;SDS011;259;53.304;9.816;2023-07-13T00:16:10;0.83;;;0.83;;
545;SDS011;259;53.304;9.816;2023-07-13T00:18:38;0.80;;;0.70;;
545;SDS011;259;53.304;9.816;2023-07-13T00:21:04;0.83;;;0.83;;
545;SDS011;259;53.304;9.816;2023-07-13T00:23:32;0.70;;;0.70;;
545;SDS011;259;53.304;9.816;2023-07-13T00:26:02;1.03;;;0.93;;
545;SDS011;259;53.304;9.816;2023-07-13T00:28:30;0.70;;;0.70;;
545;SDS011;259;53.304;9.816;2023-07-13T00:30:57;1.00;;;1.00;;
545;SDS011;259;53.304;9.816;2023-07-13T00:33:23;1.20;;;1.10;;
545;SDS011;259;53.304;9.816;2023-07-13T00:35:49;0.80;;;0.80;;
545;SDS011;259;53.304;9.816;2023-07-13T00:38:15;0.77;;;0.77;;
545;SDS011;259;53.304;9.816;2023-07-13T00:40:41;1.10;;;1.00;;
545;SDS011;259;53.304;9.816;2023-07-13T00:43:13;0.80;;;0.80;;
545;SDS011;259;53.304;9.816;2023-07-13T00:48:08;0.90;;;0.90;;
545;SDS011;259;53.304;9.816;2023-07-13T00:50:40;1.00;;;1.00;;
545;SDS011;259;53.304;9.816;2023-07-13T00:53:07;0.93;;;0.93;;
545;SDS011;259;53.304;9.816;2023-07-13T00:55:33;1.10;;;1.00;;
545;SDS011;259;53.304;9.816;2023-07-13T00:58:00;0.80;;;0.80;;
545;SDS011;259;53.304;9.816;2023-07-13T01:00:27;0.90;;;0.90;;
545;SDS011;259;53.304;9.816;2023-07-13T01:02:54;1.73;;;1.10;;
545;SDS011;259;53.304;9.816;2023-07-13T01:05:21;0.80;;;0.80;;
545;SDS011;259;53.304;9.816;2023-07-13T01:07:47;1.10;;;1.00;;
545;SDS011;259;53.304;9.816;2023-07-13T01:10:16;1.00;;;1.00;;
545;SDS011;259;53.304;9.816;2023-07-13T01:12:43;1.13;;;1.03;;
545;SDS011;259;53.304;9.816;2023-07-13T01:18:07;1.00;;;1.00;;
545;SDS011;259;53.304;9.816;2023-07-13T01:20:36;1.10;;;1.00;;
545;SDS011;259;53.304;9.816;2023-07-13T01:23:07;1.27;;;1.17;;
545;SDS011;259;53.304;9.816;2023-07-13T01:25:35;0.87;;;0.87;;
545;SDS011;259;53.304;9.816;2023-07-13T01:28:03;1.70;;;1.13;;
545;SDS011;259;53.304;9.816;2023-07-13T01:30:31;1.27;;;1.03;;
545;SDS011;259;53.304;9.816;2023-07-13T01:32:57;2.80;;;0.80;;
545;SDS011;259;53.304;9.816;2023-07-13T01:35:23;1.00;;;0.90;;
545;SDS011;259;53.304;9.816;2023-07-13T01:37:52;1.13;;;1.03;;
545;SDS011;259;53.304;9.816;2023-07-13T01:40:18;1.00;;;0.90;;
545;SDS011;259;53.304;9.816;2023-07-13T01:42:44;1.50;;;1.40;;
545;SDS011;259;53.304;9.816;2023-07-13T01:45:10;1.20;;;1.10;;
545;SDS011;259;53.304;9.816;2023-07-13T01:47:36;1.00;;;0.90;;
545;SDS011;259;53.304;9.816;2023-07-13T01:50:02;1.10;;;1.00;;
545;SDS011;259;53.304;9.816;2023-07-13T01:52:28;1.03;;;1.03;;
545;SDS011;259;53.304;9.816;2023-07-13T01:54:54;1.37;;;1.17;;
545;SDS011;259;53.304;9.816;2023-07-13T01:57:20;1.00;;;1.00;;
545;SDS011;259;53.304;9.816;2023-07-13T01:59:45;1.30;;;1.20;;
545;SDS011;259;53.304;9.816;2023-07-13T02:02:11;1.00;;;1.00;;
545;SDS011;259;53.304;9.816;2023-07-13T02:04:37;1.23;;;1.00;;
545;SDS011;259;53.304;9.816;2023-07-13T02:07:02;1.10;;;1.10;;
545;SDS011;259;53.304;9.816;2023-07-13T02:09:28;1.03;;;1.00;;
545;SDS011;259;53.304;9.816;2023-07-13T02:11:54;1.00;;;1.00;;
545;SDS011;259;53.304;9.816;2023-07-13T02:14:20;1.40;;;1.30;;
545;SDS011;259;53.304;9.816;2023-07-13T02:16:45;1.23;;;1.23;;
545;SDS011;259;53.304;9.816;2023-07-13T02:19:13;1.10;;;1.00;;
545;SDS011;259;53.304;9.816;2023-07-13T02:21:39;1.27;;;1.17;;
545;SDS011;259;53.304;9.816;2023-07-13T02:24:05;1.40;;;1.10;;
545;SDS011;259;53.304;9.816;2023-07-13T02:26:31;0.93;;;0.93;;
545;SDS011;259;53.304;9.816;2023-07-13T02:28:57;1.07;;;1.07;;
545;SDS011;259;53.304;9.816;2023-07-13T02:31:22;1.30;;;1.20;;
545;SDS011;259;53.304;9.816;2023-07-13T02:33:48;1.40;;;1.20;;
545;SDS011;259;53.304;9.816;2023-07-13T02:36:14;1.13;;;1.10;;
545;SDS011;259;53.304;9.816;2023-07-13T02:38:41;1.20;;;1.10;;
545;SDS011;259;53.304;9.816;2023-07-13T02:41:08;1.20;;;1.10;;
545;SDS011;259;53.304;9.816;2023-07-13T02:43:34;1.27;;;1.17;;
545;SDS011;259;53.304;9.816;2023-07-13T02:46:00;1.10;;;1.10;;
545;SDS011;259;53.304;9.816;2023-07-13T02:48:32;0.93;;;0.93;;
545;SDS011;259;53.304;9.816;2023-07-13T02:50:58;1.00;;;1.00;;
545;SDS011;259;53.304;9.816;2023-07-13T02:53:24;1.43;;;1.10;;
545;SDS011;259;53.304;9.816;2023-07-13T02:55:50;1.23;;;1.20;;
545;SDS011;259;53.304;9.816;2023-07-13T02:58:16;1.50;;;1.40;;
545;SDS011;259;53.304;9.816;2023-07-13T03:00:45;1.03;;;0.93;;
545;SDS011;259;53.304;9.816;2023-07-13T03:03:12;1.50;;;1.40;;
545;SDS011;259;53.304;9.816;2023-07-13T03:05:40;1.30;;;1.20;;
545;SDS011;259;53.304;9.816;2023-07-13T03:08:08;1.20;;;1.10;;
545;SDS011;259;53.304;9.816;2023-07-13T03:10:35;1.20;;;1.07;;
545;SDS011;259;53.304;9.816;2023-07-13T03:13:00;1.60;;;1.50;;
545;SDS011;259;53.304;9.816;2023-07-13T03:15:26;1.30;;;1.20;;
545;SDS011;259;53.304;9.816;2023-07-13T03:17:52;1.60;;;1.50;;
545;SDS011;259;53.304;9.816;2023-07-13T03:20:18;1.50;;;1.40;;
545;SDS011;259;53.304;9.816;2023-07-13T03:22:44;1.50;;;1.40;;
545;SDS011;259;53.304;9.816;2023-07-13T03:25:10;1.03;;;1.03;;
545;SDS011;259;53.304;9.816;2023-07-13T03:27:36;1.13;;;1.03;;
545;SDS011;259;53.304;9.816;2023-07-13T03:30:03;1.20;;;1.20;;
545;SDS011;259;53.304;9.816;2023-07-13T03:32:30;1.07;;;1.03;;
545;SDS011;259;53.304;9.816;2023-07-13T03:34:56;1.10;;;1.10;;
545;SDS011;259;53.304;9.816;2023-07-13T03:37:22;1.40;;;1.40;;
545;SDS011;259;53.304;9.816;2023-07-13T03:39:47;1.20;;;1.20;;
545;SDS011;259;53.304;9.816;2023-07-13T03:42:13;1.27;;;1.20;;
545;SDS011;259;53.304;9.816;2023-07-13T03:44:40;0.90;;;0.90;;
545;SDS011;259;53.304;9.816;2023-07-13T03:47:06;1.03;;;1.03;;
545;SDS011;259;53.304;9.816;2023-07-13T03:49:33;1.60;;;1.20;;
545;SDS011;259;53.304;9.816;2023-07-13T03:52:00;1.30;;;1.20;;
545;SDS011;259;53.304;9.816;2023-07-13T03:54:26;1.27;;;1.10;;
545;SDS011;259;53.304;9.816;2023-07-13T03:56:51;1.43;;;1.20;;
545;SDS011;259;53.304;9.816;2023-07-13T03:59:17;1.20;;;1.10;;
545;SDS011;259;53.304;9.816;2023-07-13T04:01:43;1.33;;;1.23;;
545;SDS011;259;53.304;9.816;2023-07-13T04:04:09;1.17;;;1.10;;
545;SDS011;259;53.304;9.816;2023-07-13T04:06:35;2.50;;;1.20;;
545;SDS011;259;53.304;9.816;2023-07-13T04:09:02;1.60;;;1.50;;
545;SDS011;259;53.304;9.816;2023-07-13T04:11:32;1.30;;;1.20;;
545;SDS011;259;53.304;9.816;2023-07-13T04:13:58;1.90;;;1.27;;
545;SDS011;259;53.304;9.816;2023-07-13T04:16:24;1.00;;;1.00;;
545;SDS011;259;53.304;9.816;2023-07-13T04:18:51;1.20;;;1.10;;
545;SDS011;259;53.304;9.816;2023-07-13T04:21:19;1.57;;;1.30;;
545;SDS011;259;53.304;9.816;2023-07-13T04:23:46;1.40;;;1.30;;
545;SDS011;259;53.304;9.816;2023-07-13T04:26:11;1.37;;;1.30;;
545;SDS011;259;53.304;9.816;2023-07-13T04:28:37;1.33;;;1.23;;
545;SDS011;259;53.304;9.816;2023-07-13T04:31:03;1.50;;;1.40;;
545;SDS011;259;53.304;9.816;2023-07-13T04:33:29;1.20;;;1.20;;
545;SDS011;259;53.304;9.816;2023-07-13T04:35:55;1.53;;;1.43;;
545;SDS011;259;53.304;9.816;2023-07-13T04:38:26;1.63;;;1.53;;
545;SDS011;259;53.304;9.816;2023-07-13T04:40:55;1.10;;;1.10;;
545;SDS011;259;53.304;9.816;2023-07-13T04:43:22;1.40;;;1.40;;
545;SDS011;259;53.304;9.816;2023-07-13T04:45:50;1.50;;;1.40;;
545;SDS011;259;53.304;9.816;2023-07-13T04:48:17;1.20;;;1.10;;
545;SDS011;259;53.304;9.816;2023-07-13T04:50:43;1.50;;;1.40;;
545;SDS011;259;53.304;9.816;2023-07-13T04:53:08;1.23;;;1.23;;
545;SDS011;259;53.304;9.816;2023-07-13T04:55:35;1.10;;;1.10;;
545;SDS011;259;53.304;9.816;2023-07-13T04:58:02;1.83;;;1.70;;
545;SDS011;259;53.304;9.816;2023-07-13T05:00:30;2.20;;;1.40;;
545;SDS011;259;53.304;9.816;2023-07-13T05:02:56;1.33;;;1.23;;
545;SDS011;259;53.304;9.816;2023-07-13T05:05:24;3.33;;;1.60;;
545;SDS011;259;53.304;9.816;2023-07-13T05:07:51;1.40;;;1.30;;
545;SDS011;259;53.304;9.816;2023-07-13T05:10:18;1.40;;;1.30;;
545;SDS011;259;53.304;9.816;2023-07-13T05:12:44;1.30;;;1.20;;
545;SDS011;259;53.304;9.816;2023-07-13T05:15:10;1.50;;;1.40;;
545;SDS011;259;53.304;9.816;2023-07-13T05:17:36;1.40;;;1.30;;
545;SDS011;259;53.304;9.816;2023-07-13T05:20:03;1.67;;;1.20;;
545;SDS011;259;53.304;9.816;2023-07-13T05:22:30;1.57;;;1.47;;
545;SDS011;259;53.304;9.816;2023-07-13T05:24:56;1.47;;;1.10;;
545;SDS011;259;53.304;9.816;2023-07-13T05:27:22;1.60;;;1.50;;
545;SDS011;259;53.304;9.816;2023-07-13T05:29:48;1.80;;;1.70;;
545;SDS011;259;53.304;9.816;2023-07-13T05:32:14;1.27;;;1.27;;
545;SDS011;259;53.304;9.816;2023-07-13T05:34:40;1.70;;;1.60;;
545;SDS011;259;53.304;9.816;2023-07-13T05:37:06;1.60;;;1.33;;
545;SDS011;259;53.304;9.816;2023-07-13T05:39:33;1.43;;;1.33;;
545;SDS011;259;53.304;9.816;2023-07-13T05:41:58;1.30;;;1.20;;
545;SDS011;259;53.304;9.816;2023-07-13T05:44:24;1.30;;;1.20;;
545;SDS011;259;53.304;9.816;2023-07-13T05:46:49;1.30;;;1.30;;
545;SDS011;259;53.304;9.816;2023-07-13T05:49:15;5.27;;;1.73;;
545;SDS011;259;53.304;9.816;2023-07-13T05:51:41;2.10;;;1.43;;
545;SDS011;259;53.304;9.816;2023-07-13T05:54:06;1.20;;;1.10;;
545;SDS011;259;53.304;9.816;2023-07-13T05:56:32;1.30;;;1.20;;
545;SDS011;259;53.304;9.816;2023-07-13T05:58:58;1.40;;;1.30;;
545;SDS011;259;53.304;9.816;2023-07-13T06:01:23;1.40;;;1.30;;
545;SDS011;259;53.304;9.816;2023-07-13T06:03:49;1.43;;;1.33;;
545;SDS011;259;53.304;9.816;2023-07-13T06:06:15;1.63;;;1.27;;
545;SDS011;259;53.304;9.816;2023-07-13T06:08:41;1.47;;;1.37;;
545;SDS011;259;53.304;9.816;2023-07-13T06:11:08;1.60;;;1.50;;
545;SDS011;259;53.304;9.816;2023-07-13T06:13:39;1.73;;;1.60;;
545;SDS011;259;53.304;9.816;2023-07-13T06:16:05;2.13;;;1.50;;
545;SDS011;259;53.304;9.816;2023-07-13T06:18:32;1.30;;;1.20;;
545;SDS011;259;53.304;9.816;2023-07-13T06:20:58;1.60;;;1.50;;
545;SDS011;259;53.304;9.816;2023-07-13T06:23:24;1.60;;;1.50;;
545;SDS011;259;53.304;9.816;2023-07-13T06:25:50;2.20;;;1.40;;
545;SDS011;259;53.304;9.816;2023-07-13T06:28:16;3.60;;;1.50;;
545;SDS011;259;53.304;9.816;2023-07-13T06:30:42;2.37;;;1.67;;
545;SDS011;259;53.304;9.816;2023-07-13T06:33:07;1.63;;;1.53;;
545;SDS011;259;53.304;9.816;2023-07-13T06:35:33;1.23;;;1.10;;
545;SDS011;259;53.304;9.816;2023-07-13T06:37:59;2.50;;;1.23;;
545;SDS011;259;53.304;9.816;2023-07-13T06:40:25;1.63;;;1.27;;
545;SDS011;259;53.304;9.816;2023-07-13T06:42:53;2.40;;;1.50;;
545;SDS011;259;53.304;9.816;2023-07-13T06:45:18;1.47;;;1.37;;
545;SDS011;259;53.304;9.816;2023-07-13T06:47:44;1.40;;;1.30;;
545;SDS011;259;53.304;9.816;2023-07-13T06:50:10;1.30;;;1.20;;
545;SDS011;259;53.304;9.816;2023-07-13T06:52:35;2.57;;;1.43;;
545;SDS011;259;53.304;9.816;2023-07-13T06:55:01;1.77;;;1.40;;
545;SDS011;259;53.304;9.816;2023-07-13T06:57:27;3.60;;;1.60;;
545;SDS011;259;53.304;9.816;2023-07-13T06:59:53;1.77;;;1.63;;
545;SDS011;259;53.304;9.816;2023-07-13T07:02:18;1.77;;;1.40;;
545;SDS011;259;53.304;9.816;2023-07-13T07:04:44;2.00;;;1.80;;
545;SDS011;259;53.304;9.816;2023-07-13T07:07:10;1.77;;;1.47;;
545;SDS011;259;53.304;9.816;2023-07-13T07:09:35;1.50;;;1.20;;
545;SDS011;259;53.304;9.816;2023-07-13T07:12:02;1.90;;;1.60;;
545;SDS011;259;53.304;9.816;2023-07-13T07:14:28;2.70;;;1.50;;
545;SDS011;259;53.304;9.816;2023-07-13T07:16:54;1.70;;;1.33;;
545;SDS011;259;53.304;9.816;2023-07-13T07:19:20;2.70;;;1.60;;
545;SDS011;259;53.304;9.816;2023-07-13T07:21:46;1.47;;;1.37;;
545;SDS011;259;53.304;9.816;2023-07-13T07:24:11;1.87;;;1.20;;
545;SDS011;259;53.304;9.816;2023-07-13T07:26:37;2.23;;;2.03;;
545;SDS011;259;53.304;9.816;2023-07-13T07:29:03;2.00;;;1.57;;
545;SDS011;259;53.304;9.816;2023-07-13T07:31:28;1.50;;;1.10;;
545;SDS011;259;53.304;9.816;2023-07-13T07:33:54;1.70;;;1.60;;
545;SDS011;259;53.304;9.816;2023-07-13T07:36:20;1.70;;;1.60;;
545;SDS011;259;53.304;9.816;2023-07-13T07:38:45;3.37;;;1.67;;
545;SDS011;259;53.304;9.816;2023-07-13T07:41:11;2.07;;;1.60;;
545;SDS011;259;53.304;9.816;2023-07-13T07:43:38;2.10;;;1.50;;
545;SDS011;259;53.304;9.816;2023-07-13T07:46:03;2.20;;;1.60;;
545;SDS011;259;53.304;9.816;2023-07-13T07:48:29;1.63;;;1.53;;
545;SDS011;259;53.304;9.816;2023-07-13T07:50:55;1.90;;;1.60;;
545;SDS011;259;53.304;9.816;2023-07-13T07:53:21;1.70;;;1.27;;
545;SDS011;259;53.304;9.816;2023-07-13T07:55:47;1.70;;;1.60;;
545;SDS011;259;53.304;9.816;2023-07-13T07:58:13;1.87;;;1.40;;
545;SDS011;259;53.304;9.816;2023-07-13T08:00:39;1.93;;;1.80;;
545;SDS011;259;53.304;9.816;2023-07-13T08:03:05;1.80;;;1.70;;
545;SDS011;259;53.304;9.816;2023-07-13T08:05:31;1.43;;;1.30;;
545;SDS011;259;53.304;9.816;2023-07-13T08:07:56;2.23;;;1.33;;
545;SDS011;259;53.304;9.816;2023-07-13T08:10:22;2.00;;;1.57;;
545;SDS011;259;53.304;9.816;2023-07-13T08:12:48;1.83;;;1.37;;
545;SDS011;259;53.304;9.816;2023-07-13T08:15:15;3.77;;;2.07;;
545;SDS011;259;53.304;9.816;2023-07-13T08:17:41;1.60;;;1.50;;
545;SDS011;259;53.304;9.816;2023-07-13T08:20:07;2.30;;;1.27;;
545;SDS011;259;53.304;9.816;2023-07-13T08:22:34;1.90;;;1.47;;
545;SDS011;259;53.304;9.816;2023-07-13T08:25:00;1.90;;;1.80;;
545;SDS011;259;53.304;9.816;2023-07-13T08:27:26;2.33;;;1.77;;
545;SDS011;259;53.304;9.816;2023-07-13T08:29:53;2.20;;;1.70;;
545;SDS011;259;53.304;9.816;2023-07-13T08:32:20;2.03;;;1.60;;
545;SDS011;259;53.304;9.816;2023-07-13T08:34:47;1.93;;;1.60;;
545;SDS011;259;53.304;9.816;2023-07-13T08:37:14;3.77;;;1.60;;
545;SDS011;259;53.304;9.816;2023-07-13T08:39:41;2.13;;;1.83;;
545;SDS011;259;53.304;9.816;2023-07-13T08:45:17;2.70;;;1.70;;
545;SDS011;259;53.304;9.816;2023-07-13T08:47:53;2.07;;;1.60;;
545;SDS011;259;53.304;9.816;2023-07-13T08:50:26;2.63;;;1.60;;
545;SDS011;259;53.304;9.816;2023-07-13T08:53:01;3.37;;;1.70;;
545;SDS011;259;53.304;9.816;2023-07-13T08:55:29;1.97;;;1.77;;
545;SDS011;259;53.304;9.816;2023-07-13T08:58:13;3.50;;;2.17;;
545;SDS011;259;53.304;9.816;2023-07-13T09:03:41;1.60;;;1.47;;
545;SDS011;259;53.304;9.816;2023-07-13T09:06:16;1.80;;;1.70;;
545;SDS011;259;53.304;9.816;2023-07-13T09:08:52;1.83;;;1.67;;
545;SDS011;259;53.304;9.816;2023-07-13T09:17:16;3.70;;;2.43;;
545;SDS011;259;53.304;9.816;2023-07-13T09:19:51;1.80;;;1.70;;
545;SDS011;259;53.304;9.816;2023-07-13T09:22:30;2.20;;;2.00;;
545;SDS011;259;53.304;9.816;2023-07-13T09:27:56;2.27;;;1.70;;
545;SDS011;259;53.304;9.816;2023-07-13T09:30:48;2.20;;;2.00;;
545;SDS011;259;53.304;9.816;2023-07-13T09:33:29;1.73;;;1.43;;
545;SDS011;259;53.304;9.816;2023-07-13T09:35:56;3.33;;;2.00;;
545;SDS011;259;53.304;9.816;2023-07-13T09:38:27;3.80;;;1.90;;
545;SDS011;259;53.304;9.816;2023-07-13T09:44:29;1.60;;;1.50;;
545;SDS011;259;53.304;9.816;2023-07-13T09:47:01;2.20;;;1.60;;
545;SDS011;259;53.304;9.816;2023-07-13T09:49:28;2.40;;;1.70;;
545;SDS011;259;53.304;9.816;2023-07-13T09:51:59;2.10;;;1.90;;
545;SDS011;259;53.304;9.816;2023-07-13T09:54:32;1.73;;;1.63;;
545;SDS011;259;53.304;9.816;2023-07-13T09:57:00;2.93;;;2.00;;
545;SDS011;259;53.304;9.816;2023-07-13T09:59:36;2.07;;;1.83;;
545;SDS011;259;53.304;9.816;2023-07-13T10:02:23;1.83;;;1.73;;
545;SDS011;259;53.304;9.816;2023-07-13T10:05:10;2.33;;;2.10;;
545;SDS011;259;53.304;9.816;2023-07-13T10:07:42;2.43;;;1.80;;
545;SDS011;259;53.304;9.816;2023-07-13T10:10:14;2.23;;;1.80;;
545;SDS011;259;53.304;9.816;2023-07-13T10:12:47;2.13;;;1.60;;
545;SDS011;259;53.304;9.816;2023-07-13T10:15:20;2.70;;;1.97;;
545;SDS011;259;53.304;9.816;2023-07-13T10:17:50;2.37;;;1.73;;
545;SDS011;259;53.304;9.816;2023-07-13T10:20:18;2.10;;;1.90;;
545;SDS011;259;53.304;9.816;2023-07-13T10:22:49;3.10;;;2.23;;
545;SDS011;259;53.304;9.816;2023-07-13T10:25:21;2.47;;;1.87;;
545;SDS011;259;53.304;9.816;2023-07-13T10:27:51;2.27;;;2.07;;
545;SDS011;259;53.304;9.816;2023-07-13T10:30:22;3.10;;;2.30;;
545;SDS011;259;53.304;9.816;2023-07-13T10:32:53;2.00;;;1.80;;
545;SDS011;259;53.304;9.816;2023-07-13T10:35:22;1.90;;;1.80;;
545;SDS011;259;53.304;9.816;2023-07-13T10:37:52;3.37;;;2.10;;
545;SDS011;259;53.304;9.816;2023-07-13T10:40:41;2.00;;;1.90;;
545;SDS011;259;53.304;9.816;2023-07-13T10:43:16;2.17;;;1.97;;
545;SDS011;259;53.304;9.816;2023-07-13T10:45:48;2.33;;;2.13;;
545;SDS011;259;53.304;9.816;2023-07-13T10:48:15;2.63;;;2.30;;
545;SDS011;259;53.304;9.816;2023-07-13T10:50:44;2.10;;;1.90;;
545;SDS011;259;53.304;9.816;2023-07-13T10:53:19;3.07;;;2.50;;
545;SDS011;259;53.304;9.816;2023-07-13T11:01:17;2.70;;;2.50;;
545;SDS011;259;53.304;9.816;2023-07-13T11:06:16;2.50;;;2.30;;
545;SDS011;259;53.304;9.816;2023-07-13T11:09:19;2.13;;;2.00;;
545;SDS011;259;53.304;9.816;2023-07-13T11:12:10;2.50;;;2.30;;
545;SDS011;259;53.304;9.816;2023-07-13T11:20:09;2.60;;;2.40;;
545;SDS011;259;53.304;9.816;2023-07-13T11:22:48;2.83;;;2.57;;
545;SDS011;259;53.304;9.816;2023-07-13T11:25:33;2.60;;;2.40;;
545;SDS011;259;53.304;9.816;2023-07-13T11:30:38;2.53;;;2.33;;
545;SDS011;259;53.304;9.816;2023-07-13T11:33:45;2.57;;;2.37;;
545;SDS011;259;53.304;9.816;2023-07-13T11:36:17;2.47;;;2.30;;
545;SDS011;259;53.304;9.816;2023-07-13T11:41:49;2.30;;;2.20;;
545;SDS011;259;53.304;9.816;2023-07-13T11:44:23;2.60;;;2.40;;
545;SDS011;259;53.304;9.816;2023-07-13T11:46:52;2.30;;;2.20;;
545;SDS011;259;53.304;9.816;2023-07-13T11:49:21;2.70;;;2.50;;
545;SDS011;259;53.304;9.816;2023-07-13T11:51:52;2.73;;;2.53;;
545;SDS011;259;53.304;9.816;2023-07-13T11:59:57;2.10;;;2.00;;
545;SDS011;259;53.304;9.816;2023-07-13T12:04:58;3.13;;;2.50;;
545;SDS011;259;53.304;9.816;2023-07-13T12:07:28;2.20;;;2.00;;
545;SDS011;259;53.304;9.816;2023-07-13T12:10:01;2.47;;;2.07;;
545;SDS011;259;53.304;9.816;2023-07-13T12:12:40;2.10;;;2.00;;
545;SDS011;259;53.304;9.816;2023-07-13T12:15:24;2.90;;;2.70;;
545;SDS011;259;53.304;9.816;2023-07-13T12:17:58;2.40;;;2.30;;
545;SDS011;259;53.304;9.816;2023-07-13T12:20:25;2.63;;;2.43;;
545;SDS011;259;53.304;9.816;2023-07-13T12:23:05;2.37;;;2.17;;
545;SDS011;259;53.304;9.816;2023-07-13T12:25:52;2.67;;;2.40;;
545;SDS011;259;53.304;9.816;2023-07-13T12:28:20;2.63;;;2.43;;
545;SDS011;259;53.304;9.816;2023-07-13T12:30:48;2.60;;;2.40;;
545;SDS011;259;53.304;9.816;2023-07-13T12:33:15;2.40;;;2.20;;
545;SDS011;259;53.304;9.816;2023-07-13T12:35:44;2.40;;;2.23;;
545;SDS011;259;53.304;9.816;2023-07-13T12:38:15;2.70;;;2.40;;
545;SDS011;259;53.304;9.816;2023-07-13T12:40:41;2.80;;;2.60;;
545;SDS011;259;53.304;9.816;2023-07-13T12:43:13;2.30;;;2.10;;
545;SDS011;259;53.304;9.816;2023-07-13T12:45:54;2.63;;;2.53;;
545;SDS011;259;53.304;9.816;2023-07-13T12:48:26;2.43;;;2.27;;
545;SDS011;259;53.304;9.816;2023-07-13T12:50:53;2.53;;;2.33;;
545;SDS011;259;53.304;9.816;2023-07-13T12:53:22;2.33;;;2.20;;
545;SDS011;259;53.304;9.816;2023-07-13T12:55:54;2.63;;;2.43;;
545;SDS011;259;53.304;9.816;2023-07-13T12:58:32;2.40;;;2.20;;
545;SDS011;259;53.304;9.816;2023-07-13T13:01:11;3.30;;;3.00;;
545;SDS011;259;53.304;9.816;2023-07-13T13:03:39;3.10;;;2.63;;
545;SDS011;259;53.304;9.816;2023-07-13T13:08:46;2.40;;;2.20;;
545;SDS011;259;53.304;9.816;2023-07-13T13:11:14;2.70;;;2.27;;
545;SDS011;259;53.304;9.816;2023-07-13T13:13:41;2.10;;;2.00;;
545;SDS011;259;53.304;9.816;2023-07-13T13:16:09;2.20;;;2.10;;
545;SDS011;259;53.304;9.816;2023-07-13T13:18:44;2.10;;;2.00;;
545;SDS011;259;53.304;9.816;2023-07-13T13:21:10;1.77;;;1.67;;
545;SDS011;259;53.304;9.816;2023-07-13T13:23:36;2.23;;;1.90;;
545;SDS011;259;53.304;9.816;2023-07-13T13:26:02;2.20;;;2.00;;
545;SDS011;259;53.304;9.816;2023-07-13T13:28:33;2.47;;;2.27;;
545;SDS011;259;53.304;9.816;2023-07-13T13:30:59;2.80;;;2.60;;
545;SDS011;259;53.304;9.816;2023-07-13T13:33:25;2.70;;;2.50;;
545;SDS011;259;53.304;9.816;2023-07-13T13:35:50;2.43;;;2.23;;
545;SDS011;259;53.304;9.816;2023-07-13T13:38:22;1.93;;;1.80;;
545;SDS011;259;53.304;9.816;2023-07-13T13:40:51;2.20;;;2.00;;
545;SDS011;259;53.304;9.816;2023-07-13T13:43:18;2.50;;;2.33;;
545;SDS011;259;53.304;9.816;2023-07-13T13:45:51;2.20;;;2.10;;
545;SDS011;259;53.304;9.816;2023-07-13T13:48:29;2.10;;;2.00;;
545;SDS011;259;53.304;9.816;2023-07-13T13:50:59;2.37;;;2.17;;
545;SDS011;259;53.304;9.816;2023-07-13T13:53:26;2.07;;;1.97;;
545;SDS011;259;53.304;9.816;2023-07-13T13:55:53;2.93;;;2.03;;
545;SDS011;259;53.304;9.816;2023-07-13T13:58:19;2.30;;;2.10;;
545;SDS011;259;53.304;9.816;2023-07-13T14:00:45;2.30;;;2.10;;
545;SDS011;259;53.304;9.816;2023-07-13T14:03:14;2.37;;;2.17;;
545;SDS011;259;53.304;9.816;2023-07-13T14:05:43;2.80;;;2.43;;
545;SDS011;259;53.304;9.816;2023-07-13T14:08:14;2.20;;;2.10;;
545;SDS011;259;53.304;9.816;2023-07-13T14:10:43;2.47;;;2.27;;
545;SDS011;259;53.304;9.816;2023-07-13T14:13:20;1.97;;;1.87;;
545;SDS011;259;53.304;9.816;2023-07-13T14:15:53;2.20;;;2.00;;
545;SDS011;259;53.304;9.816;2023-07-13T14:18:19;1.70;;;1.60;;
545;SDS011;259;53.304;9.816;2023-07-13T14:20:45;2.17;;;2.07;;
545;SDS011;259;53.304;9.816;2023-07-13T14:23:13;2.20;;;2.10;;
545;SDS011;259;53.304;9.816;2023-07-13T14:25:41;1.80;;;1.70;;
545;SDS011;259;53.304;9.816;2023-07-13T14:28:19;2.57;;;2.43;;
545;SDS011;259;53.304;9.816;2023-07-13T14:30:50;2.80;;;1.97;;
545;SDS011;259;53.304;9.816;2023-07-13T14:33:17;2.17;;;1.97;;
545;SDS011;259;53.304;9.816;2023-07-13T14:35:43;1.80;;;1.63;;
545;SDS011;259;53.304;9.816;2023-07-13T14:38:17;2.10;;;2.00;;
545;SDS011;259;53.304;9.816;2023-07-13T14:40:45;2.20;;;2.10;;
545;SDS011;259;53.304;9.816;2023-07-13T14:43:12;2.07;;;1.97;;
545;SDS011;259;53.304;9.816;2023-07-13T14:45:41;2.03;;;1.90;;
545;SDS011;259;53.304;9.816;2023-07-13T14:50:46;2.27;;;1.70;;
545;SDS011;259;53.304;9.816;2023-07-13T14:53:12;2.30;;;2.10;;
545;SDS011;259;53.304;9.816;2023-07-13T14:55:39;1.60;;;1.50;;
545;SDS011;259;53.304;9.816;2023-07-13T14:58:05;2.03;;;1.93;;
545;SDS011;259;53.304;9.816;2023-07-13T15:00:31;1.90;;;1.80;;
545;SDS011;259;53.304;9.816;2023-07-13T15:02:58;1.80;;;1.70;;
545;SDS011;259;53.304;9.816;2023-07-13T15:05:26;1.80;;;1.70;;
545;SDS011;259;53.304;9.816;2023-07-13T15:07:56;2.53;;;2.33;;
545;SDS011;259;53.304;9.816;2023-07-13T15:10:26;2.10;;;2.00;;
545;SDS011;259;53.304;9.816;2023-07-13T15:12:58;1.60;;;1.50;;
545;SDS011;259;53.304;9.816;2023-07-13T15:15:45;2.00;;;1.87;;
545;SDS011;259;53.304;9.816;2023-07-13T15:18:17;2.10;;;2.00;;
545;SDS011;259;53.304;9.816;2023-07-13T15:20:47;1.83;;;1.73;;
545;SDS011;259;53.304;9.816;2023-07-13T15:23:15;2.10;;;2.00;;
545;SDS011;259;53.304;9.816;2023-07-13T15:25:42;1.63;;;1.57;;
545;SDS011;259;53.304;9.816;2023-07-13T15:28:09;1.70;;;1.60;;
545;SDS011;259;53.304;9.816;2023-07-13T15:30:38;1.90;;;1.80;;
545;SDS011;259;53.304;9.816;2023-07-13T15:35:47;2.03;;;1.93;;
545;SDS011;259;53.304;9.816;2023-07-13T15:38:18;1.70;;;1.60;;
545;SDS011;259;53.304;9.816;2023-07-13T15:40:54;1.80;;;1.70;;
545;SDS011;259;53.304;9.816;2023-07-13T15:43:21;2.30;;;2.10;;
545;SDS011;259;53.304;9.816;2023-07-13T15:45:48;1.77;;;1.67;;
545;SDS011;259;53.304;9.816;2023-07-13T15:50:54;1.60;;;1.50;;
545;SDS011;259;53.304;9.816;2023-07-13T15:53:30;1.40;;;1.30;;
545;SDS011;259;53.304;9.816;2023-07-13T15:55:58;1.60;;;1.50;;
545;SDS011;259;53.304;9.816;2023-07-13T15:58:25;1.77;;;1.67;;
545;SDS011;259;53.304;9.816;2023-07-13T16:00:53;1.70;;;1.60;;
545;SDS011;259;53.304;9.816;2023-07-13T16:03:19;1.50;;;1.40;;
545;SDS011;259;53.304;9.816;2023-07-13T16:05:46;2.70;;;2.50;;
545;SDS011;259;53.304;9.816;2023-07-13T16:08:29;1.63;;;1.53;;
545;SDS011;259;53.304;9.816;2023-07-13T16:10:58;1.60;;;1.50;;
545;SDS011;259;53.304;9.816;2023-07-13T16:13:27;1.70;;;1.60;;
545;SDS011;259;53.304;9.816;2023-07-13T16:15:54;1.67;;;1.57;;
545;SDS011;259;53.304;9.816;2023-07-13T16:18:21;1.50;;;1.40;;
545;SDS011;259;53.304;9.816;2023-07-13T16:20:47;1.73;;;1.63;;
545;SDS011;259;53.304;9.816;2023-07-13T16:23:15;1.70;;;1.60;;
545;SDS011;259;53.304;9.816;2023-07-13T16:25:42;1.70;;;1.60;;
545;SDS011;259;53.304;9.816;2023-07-13T16:28:09;1.67;;;1.57;;
545;SDS011;259;53.304;9.816;2023-07-13T16:30:35;1.40;;;1.30;;
545;SDS011;259;53.304;9.816;2023-07-13T16:33:03;1.80;;;1.70;;
545;SDS011;259;53.304;9.816;2023-07-13T16:35:33;1.70;;;1.60;;
545;SDS011;259;53.304;9.816;2023-07-13T16:38:15;1.70;;;1.60;;
545;SDS011;259;53.304;9.816;2023-07-13T16:40:44;1.53;;;1.40;;
545;SDS011;259;53.304;9.816;2023-07-13T16:43:12;1.70;;;1.60;;
545;SDS011;259;53.304;9.816;2023-07-13T16:45:45;1.60;;;1.50;;
545;SDS011;259;53.304;9.816;2023-07-13T16:48:13;2.03;;;1.40;;
545;SDS011;259;53.304;9.816;2023-07-13T16:50:41;2.10;;;1.90;;
545;SDS011;259;53.304;9.816;2023-07-13T16:53:29;1.70;;;1.60;;
545;SDS011;259;53.304;9.816;2023-07-13T16:55:57;1.80;;;1.70;;